Terminal Aerodrome Forecast
Issued by NWS

Home | Current Version | Previous Version | Text Only | Print | Product List | Glossary On
Versions: 1 2 3 4 5 6 7 8 9 10 11 12 13 14 15
000
FTUS44 KLZK 222300
TAFHOT
TAF
KHOT 222320Z 2300/2324 10004KT P6SM VCSH SCT060 BKN100 OVC250
      TEMPO 2300/2304 -RA
     FM231200 14007KT P6SM FEW050 SCT100 BKN250
     FM232200 11007KT P6SM VCTS SCT035CB SCT080=

USA.gov is the U.S. government's official web portal to all federal, state and local government web resources and services.